Time,TemperatureF,DewpointF,PressureIn,WindDirection,WindDirectionDegrees,WindSpeedMPH,WindSpeedGustMPH,Humidity,HourlyPrecipIn,Conditions,Clouds,dailyrainin,SolarRadiationWatts/m^2,SoftwareType,DateUTC
2013-05-27 00:02:00,48.0,36.0,-100.00,NW,319,34.0,52.0,64,0.00,,,0.00,0.000000,,2013-05-27 07:02:00,
2013-05-27 00:11:00,48.0,36.0,-100.00,NW,319,34.0,52.0,64,0.00,,,0.00,0.000000,,2013-05-27 07:11:00,
2013-05-27 00:21:00,48.0,36.0,-100.00,NW,319,34.0,52.0,64,0.00,,,0.00,0.000000,,2013-05-27 07:21:00,
2013-05-27 00:52:00,46.0,30.0,-100.00,NW,311,31.0,51.0,54,0.00,,,0.00,0.000000,,2013-05-27 07:52:00,
2013-05-27 01:02:00,46.0,30.0,-100.00,NW,311,31.0,51.0,54,0.00,,,0.00,0.000000,,2013-05-27 08:02:00,
2013-05-27 01:11:00,46.0,30.0,-100.00,NW,311,31.0,51.0,54,0.00,,,0.00,0.000000,,2013-05-27 08:11:00,
2013-05-27 01:21:00,46.0,30.0,-100.00,NW,311,31.0,51.0,54,0.00,,,0.00,0.000000,,2013-05-27 08:21:00,
2013-05-27 01:52:00,46.0,30.0,-100.00,NW,313,33.0,45.0,53,0.00,,,0.00,0.000000,,2013-05-27 08:52:00,
2013-05-27 02:02:00,46.0,30.0,-100.00,NW,313,33.0,45.0,53,0.00,,,0.00,0.000000,,2013-05-27 09:02:00,
2013-05-27 02:11:00,46.0,30.0,-100.00,NW,313,33.0,45.0,53,0.00,,,0.00,0.000000,,2013-05-27 09:11:00,
2013-05-27 02:21:00,46.0,30.0,-100.00,NW,313,33.0,45.0,53,0.00,,,0.00,0.000000,,2013-05-27 09:21:00,
2013-05-27 02:53:00,48.0,30.0,-100.00,NW,323,27.0,46.0,50,0.00,,,0.00,0.000000,,2013-05-27 09:53:00,
2013-05-27 03:02:00,48.0,30.0,-100.00,NW,323,27.0,46.0,50,0.00,,,0.00,0.000000,,2013-05-27 10:02:00,
2013-05-27 03:12:00,48.0,30.0,-100.00,NW,323,27.0,46.0,50,0.00,,,0.00,0.000000,,2013-05-27 10:12:00,
2013-05-27 03:22:00,48.0,30.0,-100.00,NW,323,27.0,46.0,50,0.00,,,0.00,0.000000,,2013-05-27 10:22:00,
2013-05-27 03:52:00,46.0,29.0,-100.00,NW,325,24.0,49.0,52,0.00,,,0.00,0.000000,,2013-05-27 10:52:00,
2013-05-27 04:02:00,46.0,29.0,-100.00,NW,325,24.0,49.0,52,0.00,,,0.00,0.000000,,2013-05-27 11:02:00,
2013-05-27 04:11:00,46.0,29.0,-100.00,NW,325,24.0,49.0,52,0.00,,,0.00,0.000000,,2013-05-27 11:11:00,
2013-05-27 04:21:00,46.0,29.0,-100.00,NW,325,24.0,49.0,52,0.00,,,0.00,0.000000,,2013-05-27 11:21:00,
2013-05-27 04:52:00,47.0,32.0,-100.00,NW,322,32.0,35.0,55,0.00,,,0.00,0.000000,,2013-05-27 11:52:00,
2013-05-27 05:01:00,47.0,32.0,-100.00,NW,322,32.0,35.0,55,0.00,,,0.00,0.000000,,2013-05-27 12:01:00,
2013-05-27 05:11:00,47.0,32.0,-100.00,NW,322,32.0,35.0,55,0.00,,,0.00,0.000000,,2013-05-27 12:11:00,
2013-05-27 05:21:00,47.0,32.0,-100.00,NW,322,32.0,35.0,55,0.00,,,0.00,0.000000,,2013-05-27 12:21:00,
2013-05-27 05:52:00,45.0,31.0,-100.00,NW,321,37.0,38.0,57,0.00,,,0.00,0.000000,,2013-05-27 12:52:00,
2013-05-27 06:01:00,45.0,31.0,-100.00,NW,321,37.0,38.0,57,0.00,,,0.00,0.000000,,2013-05-27 13:01:00,
2013-05-27 06:11:00,45.0,31.0,-100.00,NW,321,37.0,38.0,57,0.00,,,0.00,0.000000,,2013-05-27 13:11:00,
2013-05-27 06:21:00,45.0,31.0,-100.00,NW,321,37.0,38.0,57,0.00,,,0.00,0.000000,,2013-05-27 13:21:00,
2013-05-27 06:52:00,46.0,31.0,-100.00,NW,319,35.0,43.0,55,0.00,,,0.00,0.000000,,2013-05-27 13:52:00,
2013-05-27 07:01:00,46.0,31.0,-100.00,NW,319,35.0,43.0,55,0.00,,,0.00,0.000000,,2013-05-27 14:01:00,
2013-05-27 07:11:00,46.0,31.0,-100.00,NW,319,35.0,43.0,55,0.00,,,0.00,0.000000,,2013-05-27 14:11:00,
2013-05-27 07:21:00,46.0,31.0,-100.00,NW,319,35.0,43.0,55,0.00,,,0.00,0.000000,,2013-05-27 14:21:00,
2013-05-27 07:52:00,45.0,30.0,-100.00,NW,322,30.0,50.0,55,0.00,,,0.00,41.000000,,2013-05-27 14:52:00,
2013-05-27 08:01:00,45.0,30.0,-100.00,NW,322,30.0,50.0,55,0.00,,,0.00,41.000000,,2013-05-27 15:01:00,
2013-05-27 08:11:00,45.0,30.0,-100.00,NW,322,30.0,50.0,55,0.00,,,0.00,41.000000,,2013-05-27 15:11:00,
2013-05-27 08:21:00,45.0,30.0,-100.00,NW,322,30.0,50.0,55,0.00,,,0.00,41.000000,,2013-05-27 15:21:00,
2013-05-27 08:53:00,47.0,30.0,-100.00,NW,324,25.0,40.0,51,0.00,,,-99.99,264.000000,,2013-05-27 15:53:00,
2013-05-27 09:02:00,47.0,30.0,-100.00,NW,324,25.0,40.0,51,0.00,,,-99.99,264.000000,,2013-05-27 16:02:00,
2013-05-27 09:12:00,47.0,30.0,-100.00,NW,324,25.0,40.0,51,0.00,,,-99.99,264.000000,,2013-05-27 16:12:00,
2013-05-27 09:22:00,47.0,30.0,-100.00,NW,324,25.0,40.0,51,0.00,,,-99.99,264.000000,,2013-05-27 16:22:00,
2013-05-27 09:52:00,49.0,27.0,-100.00,NNW,327,25.0,36.0,43,0.00,,,0.00,533.000000,,2013-05-27 16:52:00,
2013-05-27 10:02:00,49.0,27.0,-100.00,NNW,327,25.0,36.0,43,0.00,,,0.00,533.000000,,2013-05-27 17:02:00,
2013-05-27 10:11:00,49.0,27.0,-100.00,NNW,327,25.0,36.0,43,0.00,,,0.00,533.000000,,2013-05-27 17:11:00,
2013-05-27 10:22:00,49.0,27.0,-100.00,NNW,327,25.0,36.0,43,0.00,,,0.00,533.000000,,2013-05-27 17:22:00,
2013-05-27 10:52:00,52.0,27.0,-100.00,NW,323,18.0,35.0,37,0.00,,,0.00,788.000000,,2013-05-27 17:52:00,
2013-05-27 11:02:00,52.0,27.0,-100.00,NW,323,18.0,35.0,37,0.00,,,0.00,788.000000,,2013-05-27 18:02:00,
2013-05-27 11:11:00,52.0,27.0,-100.00,NW,323,18.0,35.0,37,0.00,,,0.00,788.000000,,2013-05-27 18:11:00,
2013-05-27 11:21:00,52.0,27.0,-100.00,NW,323,18.0,35.0,37,0.00,,,0.00,788.000000,,2013-05-27 18:21:00,
2013-05-27 11:52:00,56.0,30.0,-100.00,NW,319,20.0,32.0,37,0.00,,,0.00,1009.000000,,2013-05-27 18:52:00,
2013-05-27 12:01:00,56.0,30.0,-100.00,NW,319,20.0,32.0,37,0.00,,,0.00,1009.000000,,2013-05-27 19:01:00,
2013-05-27 12:11:00,56.0,30.0,-100.00,NW,319,20.0,32.0,37,0.00,,,0.00,1009.000000,,2013-05-27 19:11:00,
2013-05-27 12:21:00,56.0,30.0,-100.00,NW,319,20.0,32.0,37,0.00,,,0.00,1009.000000,,2013-05-27 19:21:00,
2013-05-27 12:52:00,58.0,31.0,-100.00,NW,323,20.0,34.0,36,0.00,,,0.00,1185.000000,,2013-05-27 19:52:00,
2013-05-27 13:01:00,58.0,31.0,-100.00,NW,323,20.0,34.0,36,0.00,,,0.00,1185.000000,,2013-05-27 20:01:00,
2013-05-27 13:11:00,58.0,31.0,-100.00,NW,323,20.0,34.0,36,0.00,,,0.00,1185.000000,,2013-05-27 20:11:00,
2013-05-27 13:22:00,58.0,31.0,-100.00,NW,323,20.0,34.0,36,0.00,,,0.00,1185.000000,,2013-05-27 20:22:00,
2013-05-27 13:52:00,60.0,34.0,-100.00,NNW,328,26.0,33.0,37,0.00,,,0.00,1282.000000,,2013-05-27 20:52:00,
2013-05-27 14:01:00,60.0,34.0,-100.00,NNW,328,26.0,33.0,37,0.00,,,0.00,1282.000000,,2013-05-27 21:01:00,
2013-05-27 14:11:00,60.0,34.0,-100.00,NNW,328,26.0,33.0,37,0.00,,,0.00,1282.000000,,2013-05-27 21:11:00,
2013-05-27 14:21:00,60.0,34.0,-100.00,NNW,328,26.0,33.0,37,0.00,,,0.00,1282.000000,,2013-05-27 21:21:00,
2013-05-27 14:53:00,58.0,31.0,-100.00,NW,318,25.0,36.0,36,0.00,,,0.00,1289.000000,,2013-05-27 21:53:00,
2013-05-27 15:02:00,58.0,31.0,-100.00,NW,318,25.0,36.0,36,0.00,,,0.00,1289.000000,,2013-05-27 22:02:00,
2013-05-27 15:12:00,58.0,31.0,-100.00,NW,318,25.0,36.0,36,0.00,,,0.00,1289.000000,,2013-05-27 22:12:00,
2013-05-27 15:22:00,58.0,31.0,-100.00,NW,318,25.0,36.0,36,0.00,,,0.00,1289.000000,,2013-05-27 22:22:00,
2013-05-27 15:53:00,59.0,27.0,-100.00,East,85,17.0,38.0,29,0.00,,,0.00,1274.000000,,2013-05-27 22:53:00,
2013-05-27 16:02:00,59.0,27.0,-100.00,East,85,17.0,38.0,29,0.00,,,0.00,1274.000000,,2013-05-27 23:02:00,
2013-05-27 16:12:00,59.0,27.0,-100.00,East,85,17.0,38.0,29,0.00,,,0.00,1274.000000,,2013-05-27 23:12:00,
2013-05-27 16:22:00,59.0,27.0,-100.00,East,85,17.0,38.0,29,0.00,,,0.00,1274.000000,,2013-05-27 23:22:00,
2013-05-27 16:52:00,63.0,32.0,-100.00,West,281,37.0,37.0,31,0.00,,,0.00,1120.000000,,2013-05-27 23:52:00,
2013-05-27 17:01:00,63.0,32.0,-100.00,West,281,37.0,37.0,31,0.00,,,0.00,1120.000000,,2013-05-28 00:01:00,
2013-05-27 17:11:00,63.0,32.0,-100.00,West,281,37.0,37.0,31,0.00,,,0.00,1120.000000,,2013-05-28 00:11:00,
2013-05-27 17:21:00,63.0,32.0,-100.00,West,281,37.0,37.0,31,0.00,,,0.00,1120.000000,,2013-05-28 00:21:00,
2013-05-27 17:52:00,58.0,35.0,-100.00,NW,306,36.0,58.0,42,0.00,,,0.00,944.000000,,2013-05-28 00:52:00,
2013-05-27 18:01:00,58.0,35.0,-100.00,NW,306,36.0,58.0,42,0.00,,,0.00,944.000000,,2013-05-28 01:01:00,
2013-05-27 18:11:00,58.0,35.0,-100.00,NW,306,36.0,58.0,42,0.00,,,0.00,944.000000,,2013-05-28 01:11:00,
2013-05-27 18:21:00,58.0,35.0,-100.00,NW,306,36.0,58.0,42,0.00,,,0.00,944.000000,,2013-05-28 01:21:00,
2013-05-27 18:52:00,55.0,37.0,-100.00,West,270,13.0,62.0,51,0.00,,,0.00,419.000000,,2013-05-28 01:52:00,
2013-05-27 19:02:00,55.0,37.0,-100.00,West,270,13.0,62.0,51,0.00,,,0.00,419.000000,,2013-05-28 02:02:00,
2013-05-27 19:11:00,55.0,37.0,-100.00,West,270,13.0,62.0,51,0.00,,,0.00,419.000000,,2013-05-28 02:11:00,
2013-05-27 19:21:00,55.0,37.0,-100.00,West,270,13.0,62.0,51,0.00,,,0.00,419.000000,,2013-05-28 02:21:00,
2013-05-27 19:52:00,53.0,37.0,-100.00,NW,304,21.0,46.0,55,0.00,,,0.00,145.000000,,2013-05-28 02:52:00,
2013-05-27 20:01:00,53.0,37.0,-100.00,NW,304,21.0,46.0,55,0.00,,,0.00,145.000000,,2013-05-28 03:01:00,
2013-05-27 20:11:00,53.0,37.0,-100.00,NW,304,21.0,46.0,55,0.00,,,0.00,145.000000,,2013-05-28 03:11:00,
2013-05-27 20:21:00,53.0,37.0,-100.00,NW,304,21.0,46.0,55,0.00,,,0.00,145.000000,,2013-05-28 03:21:00,
2013-05-27 20:53:00,50.0,37.0,-100.00,NW,313,25.0,41.0,60,0.00,,,0.00,98.000000,,2013-05-28 03:53:00,
2013-05-27 21:02:00,50.0,37.0,-100.00,NW,313,25.0,41.0,60,0.00,,,0.00,98.000000,,2013-05-28 04:02:00,
2013-05-27 21:12:00,50.0,37.0,-100.00,NW,313,25.0,41.0,60,0.00,,,0.00,98.000000,,2013-05-28 04:12:00,
2013-05-27 21:22:00,50.0,37.0,-100.00,NW,313,25.0,41.0,60,0.00,,,0.00,98.000000,,2013-05-28 04:22:00,
2013-05-27 21:53:00,50.0,39.0,-100.00,NW,304,36.0,40.0,65,0.00,,,0.00,32.000000,,2013-05-28 04:53:00,
2013-05-27 22:02:00,50.0,39.0,-100.00,NW,304,36.0,40.0,65,0.00,,,0.00,32.000000,,2013-05-28 05:02:00,
2013-05-27 22:12:00,50.0,39.0,-100.00,NW,304,36.0,40.0,65,0.00,,,0.00,32.000000,,2013-05-28 05:12:00,
2013-05-27 22:22:00,50.0,39.0,-100.00,NW,304,36.0,40.0,65,0.00,,,0.00,32.000000,,2013-05-28 05:22:00,
2013-05-27 22:52:00,48.0,36.0,-100.00,WNW,294,26.0,57.0,64,0.00,,,0.00,0.000000,,2013-05-28 05:52:00,
2013-05-27 23:02:00,48.0,36.0,-100.00,WNW,294,26.0,57.0,64,0.00,,,0.00,0.000000,,2013-05-28 06:02:00,
2013-05-27 23:11:00,48.0,36.0,-100.00,WNW,294,26.0,57.0,64,0.00,,,0.00,0.000000,,2013-05-28 06:11:00,
2013-05-27 23:21:00,48.0,36.0,-100.00,WNW,294,26.0,57.0,64,0.00,,,0.00,0.000000,,2013-05-28 06:21:00,
2013-05-27 23:52:00,47.0,35.0,-100.00,NW,315,30.0,57.0,64,0.00,,,0.00,0.000000,,2013-05-28 06:52:00,